Time;durP1;ratioP1;P1;durP2;ratioP2;P2;SDS_P1;SDS_P2;PMS_P1;PMS_P2;Temp;Humidity;BMP_temperature;BMP_pressure;BME280_temperature;BME280_humidity;BME280_pressure;Samples;Min_cycle;Max_cycle;Signal;HPM_P1;HPM_P2
2022/12/03 00:01:11;;;;;;;16.00;5.90;;;;;;;18.87;49.99;100407.13;5067599;28;20229;-66
2022/12/03 00:03:37;;;;;;;10.40;5.00;;;;;;;18.86;49.70;100408.34;5051894;28;20462;-66
2022/12/03 00:06:02;;;;;;;12.13;5.00;;;;;;;18.92;49.30;100403.97;5051246;28;20457;-66
2022/12/03 00:08:28;;;;;;;18.93;4.70;;;;;;;18.85;49.01;100400.16;5062442;28;20202;-66
2022/12/03 00:10:53;;;;;;;13.17;4.93;;;;;;;18.95;49.21;100408.94;5050387;28;20214;-66
2022/12/03 00:13:18;;;;;;;9.90;4.67;;;;;;;18.89;49.66;100403.91;5056709;28;20183;-67
2022/12/03 00:15:44;;;;;;;11.27;4.60;;;;;;;18.89;49.74;100401.03;5036157;28;20275;-66
2022/12/03 00:18:09;;;;;;;17.57;4.70;;;;;;;18.91;49.69;100396.59;5035135;28;20173;-66
2022/12/03 00:20:35;;;;;;;15.80;5.07;;;;;;;18.90;49.61;100402.69;5019060;28;20183;-65
2022/12/03 00:23:00;;;;;;;9.40;4.07;;;;;;;18.85;49.98;100403.00;5010455;28;20219;-65
2022/12/03 00:25:26;;;;;;;12.73;4.43;;;;;;;18.84;50.43;100404.22;5074671;28;20176;-66
2022/12/03 00:27:51;;;;;;;13.03;4.80;;;;;;;18.85;50.34;100398.13;5065083;28;20188;-66
2022/12/03 00:30:17;;;;;;;10.00;3.70;;;;;;;18.84;50.36;100407.91;5058094;28;20181;-66
2022/12/03 00:32:43;;;;;;;8.33;4.20;;;;;;;18.83;50.53;100397.69;5068988;28;20182;-65
2022/12/03 00:35:08;;;;;;;9.63;4.40;;;;;;;18.84;50.66;100402.19;5032194;28;20445;-65
2022/12/03 00:37:34;;;;;;;14.10;4.73;;;;;;;18.83;50.68;100402.56;5055550;28;20548;-65
2022/12/03 00:40:01;;;;;;;14.73;4.50;;;;;;;18.83;50.63;100406.28;5050371;28;20541;-66
2022/12/03 00:42:26;;;;;;;9.70;4.07;;;;;;;18.83;50.84;100400.56;5046898;28;20286;-66
2022/12/03 00:44:51;;;;;;;10.60;4.07;;;;;;;18.88;50.49;100399.41;5054086;28;20453;-65
2022/12/03 00:47:17;;;;;;;9.20;4.60;;;;;;;18.82;50.75;100407.44;5046266;28;20253;-65
2022/12/03 00:49:42;;;;;;;8.23;3.73;;;;;;;18.93;50.33;100404.81;5072016;28;20179;-65
2022/12/03 00:52:08;;;;;;;15.20;5.03;;;;;;;18.96;51.25;100404.84;5059771;28;20544;-66
2022/12/03 00:54:33;;;;;;;16.33;4.43;;;;;;;19.02;51.62;100406.19;5038134;28;20251;-66
2022/12/03 00:56:59;;;;;;;8.50;4.13;;;;;;;19.12;52.11;100402.69;5067534;28;20237;-66
2022/12/03 00:59:24;;;;;;;10.33;4.20;;;;;;;19.03;52.49;100412.75;5072075;28;20194;-65
2022/12/03 01:01:49;;;;;;;14.30;4.43;;;;;;;19.03;52.08;100413.59;5076147;28;20200;-66
2022/12/03 01:04:15;;;;;;;14.47;4.27;;;;;;;18.98;52.84;100410.22;5070380;28;20221;-66
2022/12/03 01:06:40;;;;;;;18.27;4.27;;;;;;;18.95;53.00;100405.22;5061045;28;20199;-66
2022/12/03 01:09:06;;;;;;;10.13;4.40;;;;;;;18.93;52.79;100408.50;5055453;28;20168;-66
2022/12/03 01:11:37;;;;;;;9.03;3.77;;;;;;;18.91;53.18;100402.31;5057966;28;20182;-66
2022/12/03 01:14:10;;;;;;;11.53;3.97;;;;;;;18.87;53.48;100412.84;5075869;28;20194;-66
2022/12/03 01:16:35;;;;;;;10.60;4.77;;;;;;;18.92;53.41;100408.88;5073538;28;20488;-66
2022/12/03 01:19:01;;;;;;;10.97;4.33;;;;;;;18.92;53.59;100415.41;5063933;28;20441;-66
2022/12/03 01:21:27;;;;;;;11.27;4.00;;;;;;;18.85;53.61;100418.16;5072271;28;20688;-66
2022/12/03 01:23:52;;;;;;;9.70;4.07;;;;;;;18.94;53.46;100407.28;5068841;28;20297;-66
2022/12/03 01:26:18;;;;;;;6.90;3.43;;;;;;;18.90;53.75;100409.25;5040366;28;20545;-66
2022/12/03 01:28:43;;;;;;;7.30;3.10;;;;;;;18.92;53.71;100412.53;5055957;28;20175;-66
2022/12/03 01:33:52;;;;;;;8.73;4.00;;;;;;;18.93;53.83;100411.38;5066861;28;20304;-66
2022/12/03 01:36:18;;;;;;;9.30;3.53;;;;;;;18.90;53.96;100406.38;5074966;28;20417;-66
2022/12/03 01:38:43;;;;;;;9.10;3.80;;;;;;;18.93;53.75;100402.78;5065392;28;20195;-66
2022/12/03 01:41:09;;;;;;;9.13;3.77;;;;;;;18.93;54.01;100405.63;5055833;28;20172;-66
2022/12/03 01:43:34;;;;;;;7.70;3.50;;;;;;;18.93;54.34;100410.53;5057184;28;20190;-66
2022/12/03 01:46:00;;;;;;;11.47;3.70;;;;;;;18.95;54.15;100410.97;5061206;28;20187;-66
2022/12/03 01:48:25;;;;;;;10.43;3.73;;;;;;;18.90;54.27;100409.25;5055881;28;20179;-66
2022/12/03 01:50:51;;;;;;;10.23;3.90;;;;;;;18.94;54.27;100406.44;5059195;28;20163;-66
2022/12/03 01:53:17;;;;;;;8.90;4.20;;;;;;;18.97;54.40;100408.56;5059635;28;20160;-66
2022/12/03 01:55:43;;;;;;;8.57;3.77;;;;;;;18.90;54.31;100412.13;5042131;28;20236;-66
2022/12/03 01:58:09;;;;;;;9.33;3.77;;;;;;;18.89;54.61;100415.34;5056069;28;20420;-66
2022/12/03 02:00:54;;;;;;;10.40;3.83;;;;;;;18.88;54.54;100407.97;5042005;28;20186;-66
2022/12/03 02:03:23;;;;;;;8.00;3.97;;;;;;;18.90;54.46;100417.00;5050935;28;20469;-66
2022/12/03 02:05:49;;;;;;;8.00;3.40;;;;;;;18.86;54.69;100410.41;5058286;28;20459;-66
2022/12/03 02:08:34;;;;;;;10.33;4.00;;;;;;;18.85;54.70;100409.56;5078974;28;20405;-66
2022/12/03 02:11:06;;;;;;;8.47;3.37;;;;;;;18.83;54.78;100416.88;5066295;28;20183;-66
2022/12/03 02:13:31;;;;;;;7.90;2.93;;;;;;;18.82;55.19;100412.38;5059447;28;20406;-65
2022/12/03 02:15:57;;;;;;;12.30;4.80;;;;;;;18.84;54.83;100416.50;5043864;28;20518;-66
2022/12/03 02:18:22;;;;;;;7.90;4.00;;;;;;;18.81;54.84;100417.25;5058447;28;20164;-66
2022/12/03 02:21:40;;;;;;;6.30;3.23;;;;;;;18.83;55.00;100412.00;5040165;28;20156;-66
2022/12/03 02:24:35;;;;;;;9.10;3.23;;;;;;;18.84;54.82;100419.34;5044876;28;20215;-66
2022/12/03 02:27:01;;;;;;;10.40;3.20;;;;;;;18.82;54.97;100416.03;5058281;28;20426;-66
2022/12/03 02:29:26;;;;;;;7.37;3.40;;;;;;;18.79;54.99;100408.22;5058719;28;20414;-66
2022/12/03 02:31:51;;;;;;;7.77;3.37;;;;;;;18.80;55.26;100409.88;5060184;28;20642;-66
2022/12/03 02:34:37;;;;;;;8.53;3.27;;;;;;;18.78;55.30;100409.44;5071809;28;20658;-66
2022/12/03 02:37:03;;;;;;;8.30;3.57;;;;;;;18.75;55.41;100407.34;5046093;28;20195;-66
2022/12/03 02:39:29;;;;;;;8.67;3.60;;;;;;;18.79;55.02;100405.38;5060093;28;20490;-66
2022/12/03 02:44:38;;;;;;;10.73;3.73;;;;;;;18.79;55.24;100402.50;5061422;28;20189;-66
2022/12/03 02:47:04;;;;;;;10.50;3.20;;;;;;;18.80;55.41;100404.16;5078518;28;20426;-66
2022/12/03 02:49:29;;;;;;;5.70;3.27;;;;;;;18.76;55.51;100399.59;5058777;28;20198;-66
2022/12/03 02:51:54;;;;;;;7.27;3.50;;;;;;;18.80;55.24;100395.56;5059807;28;20200;-66
2022/12/03 02:54:20;;;;;;;8.27;4.30;;;;;;;18.78;55.33;100395.16;5058340;28;20190;-66
2022/12/03 02:56:45;;;;;;;10.93;3.97;;;;;;;18.80;55.18;100394.75;5058446;28;20246;-66
2022/12/03 02:59:11;;;;;;;5.50;2.77;;;;;;;18.80;55.53;100400.47;5061143;28;20195;-66
2022/12/03 03:01:36;;;;;;;8.23;3.07;;;;;;;18.77;55.47;100399.19;5057899;28;20214;-66
2022/12/03 03:04:02;;;;;;;5.67;2.97;;;;;;;18.80;55.41;100391.88;5069453;28;20186;-66
2022/12/03 03:06:27;;;;;;;5.27;2.97;;;;;;;18.79;55.49;100396.78;5068443;28;20190;-66
2022/12/03 03:08:53;;;;;;;5.90;3.10;;;;;;;18.80;55.38;100392.72;5059622;28;20179;-66
2022/12/03 03:11:18;;;;;;;4.63;3.03;;;;;;;18.77;55.45;100398.38;5070891;28;20195;-66
2022/12/03 03:13:43;;;;;;;4.80;3.00;;;;;;;18.77;55.36;100387.75;5057893;28;20161;-66
2022/12/03 03:16:09;;;;;;;6.13;3.40;;;;;;;18.80;55.27;100384.13;5057714;28;20179;-66
2022/12/03 03:18:34;;;;;;;7.00;3.77;;;;;;;18.78;55.06;100383.72;5060051;28;20187;-66
2022/12/03 03:21:00;;;;;;;8.10;3.47;;;;;;;18.80;55.28;100386.16;5039684;28;20179;-66
2022/12/03 03:23:25;;;;;;;7.07;3.33;;;;;;;18.78;55.42;100386.56;5063896;28;20560;-66
2022/12/03 03:26:05;;;;;;;5.83;2.90;;;;;;;18.78;55.30;100386.56;5077388;28;20167;-66
2022/12/03 03:28:30;;;;;;;12.10;3.63;;;;;;;18.80;55.60;100392.72;5073134;28;20191;-66
2022/12/03 03:30:56;;;;;;;8.10;3.77;;;;;;;18.77;55.21;100384.88;5068062;28;20432;-66
2022/12/03 03:33:22;;;;;;;6.83;3.83;;;;;;;18.79;55.53;100376.78;5077260;28;20630;-66
2022/12/03 03:35:47;;;;;;;7.40;3.80;;;;;;;18.77;55.50;100379.16;5066216;28;20499;-66
2022/12/03 03:38:13;;;;;;;5.87;3.17;;;;;;;18.76;55.45;100371.00;5039990;28;20171;-66
2022/12/03 03:40:38;;;;;;;5.30;2.77;;;;;;;18.77;55.69;100384.06;5025585;28;20195;-66
2022/12/03 03:43:04;;;;;;;5.80;3.17;;;;;;;18.78;55.85;100375.13;5057724;28;20297;-66
2022/12/03 03:45:29;;;;;;;6.83;3.00;;;;;;;18.77;55.71;100378.34;5058647;28;20190;-66
2022/12/03 03:47:56;;;;;;;4.57;2.90;;;;;;;18.75;55.38;100372.16;5072218;28;20189;-66
2022/12/03 03:50:21;;;;;;;6.23;3.40;;;;;;;18.78;55.36;100386.56;5059967;28;20186;-66
2022/12/03 03:52:47;;;;;;;6.83;3.07;;;;;;;18.79;55.76;100387.38;5076178;28;20421;-66
2022/12/03 03:55:12;;;;;;;10.37;3.53;;;;;;;18.75;55.52;100381.59;5072134;28;20193;-66
2022/12/03 03:57:38;;;;;;;8.13;3.83;;;;;;;18.75;55.63;100370.16;5077687;28;20230;-66
2022/12/03 04:00:05;;;;;;;5.63;3.30;;;;;;;18.72;55.76;100373.75;5072345;28;20548;-66
2022/12/03 04:02:30;;;;;;;7.77;3.13;;;;;;;18.79;55.44;100376.78;5070281;28;20284;-66
2022/12/03 04:04:56;;;;;;;5.90;3.53;;;;;;;18.74;55.62;100368.50;5059408;28;20453;-66
2022/12/03 04:07:21;;;;;;;6.73;3.23;;;;;;;18.76;55.75;100376.72;5060863;28;20192;-66
2022/12/03 04:09:47;;;;;;;6.13;3.23;;;;;;;18.77;55.75;100373.44;5057278;28;20202;-66
2022/12/03 04:14:56;;;;;;;8.57;3.10;;;;;;;18.74;55.79;100373.38;5060118;28;20226;-66
2022/12/03 04:17:22;;;;;;;6.73;3.00;;;;;;;18.76;55.89;100373.84;5056967;28;20425;-66
2022/12/03 04:19:47;;;;;;;5.80;2.67;;;;;;;18.73;55.63;100366.84;5023111;28;20163;-66
2022/12/03 04:28:47;;;;;;;5.30;2.80;;;;;;;18.76;55.39;100373.84;5056674;28;20175;-66
2022/12/03 04:30:26;;;;;;;6.60;2.93;;;;;;;18.77;55.51;100379.16;5030515;28;20444;-66
2022/12/03 04:35:42;;;;;;;5.40;3.10;;;;;;;18.76;55.89;100368.13;5074077;28;20573;-66
2022/12/03 04:38:10;;;;;;;4.60;3.00;;;;;;;18.75;55.78;100363.59;5057166;28;20415;-66
2022/12/03 04:43:20;;;;;;;5.93;3.13;;;;;;;18.74;55.80;100362.78;5059422;28;20473;-66
2022/12/03 04:45:46;;;;;;;5.53;2.93;;;;;;;18.78;55.78;100362.84;5056411;28;20421;-66
2022/12/03 04:48:11;;;;;;;7.10;3.00;;;;;;;18.77;55.63;100367.72;5076123;28;20171;-66
2022/12/03 04:50:37;;;;;;;5.90;3.30;;;;;;;18.76;55.61;100365.28;5074617;28;20189;-66
2022/12/03 04:53:02;;;;;;;8.63;3.67;;;;;;;18.77;55.64;100370.59;5058317;28;20180;-66
2022/12/03 04:55:28;;;;;;;5.43;3.10;;;;;;;18.74;55.61;100362.78;5057730;28;20168;-66
2022/12/03 04:57:53;;;;;;;5.03;2.73;;;;;;;18.76;55.81;100360.34;5055601;28;20271;-66
2022/12/03 05:00:19;;;;;;;5.60;2.60;;;;;;;18.77;55.64;100352.63;5076658;28;20599;-66
2022/12/03 05:02:44;;;;;;;10.10;3.80;;;;;;;18.72;55.73;100353.75;5072604;28;20222;-66
2022/12/03 05:05:10;;;;;;;8.70;3.83;;;;;;;18.77;55.67;100341.19;5075843;28;20198;-66
2022/12/03 05:07:35;;;;;;;7.07;2.70;;;;;;;18.77;55.71;100347.69;5073479;28;20195;-66
2022/12/03 05:10:01;;;;;;;7.87;2.53;;;;;;;18.75;55.69;100343.56;5056393;28;20191;-66
2022/12/03 05:12:26;;;;;;;5.07;2.50;;;;;;;18.77;55.68;100356.28;5037698;28;20182;-66
2022/12/03 05:14:52;;;;;;;6.43;3.47;;;;;;;18.74;55.87;100353.38;5068410;28;20175;-66
2022/12/03 05:17:17;;;;;;;4.97;2.97;;;;;;;18.76;55.87;100348.13;5074577;28;20174;-66
2022/12/03 05:22:27;;;;;;;4.90;3.00;;;;;;;18.73;55.78;100343.13;5063455;28;20209;-66
2022/12/03 05:24:52;;;;;;;4.70;3.00;;;;;;;18.78;55.86;100342.81;5079130;28;20403;-66
2022/12/03 05:27:17;;;;;;;4.70;2.70;;;;;;;18.74;55.84;100339.91;5077457;28;20244;-66
2022/12/03 05:29:43;;;;;;;6.20;3.00;;;;;;;18.75;55.73;100341.56;5079913;28;20265;-66
2022/12/03 05:32:08;;;;;;;7.50;3.20;;;;;;;18.76;56.05;100342.38;5077203;28;20180;-66
2022/12/03 05:34:34;;;;;;;4.27;2.73;;;;;;;18.75;55.60;100335.84;5080115;28;20205;-66
2022/12/03 05:36:59;;;;;;;5.03;2.70;;;;;;;18.76;55.69;100337.47;5061455;28;20811;-66
2022/12/03 05:39:24;;;;;;;5.23;3.03;;;;;;;18.78;55.75;100334.25;5063127;28;20191;-66
2022/12/03 05:44:34;;;;;;;5.57;3.03;;;;;;;18.76;55.90;100330.94;5069190;28;20283;-66
2022/12/03 05:46:59;;;;;;;5.27;2.50;;;;;;;18.75;55.78;100330.09;5075938;28;20803;-66
2022/12/03 05:49:25;;;;;;;4.73;3.10;;;;;;;18.76;55.99;100325.22;5079610;28;20649;-66
2022/12/03 05:51:50;;;;;;;5.00;3.10;;;;;;;18.74;55.88;100327.63;5056490;28;20700;-66
2022/12/03 05:54:16;;;;;;;5.07;2.90;;;;;;;18.76;55.82;100326.03;5059228;28;20180;-66
2022/12/03 05:56:41;;;;;;;7.50;3.20;;;;;;;18.77;55.94;100330.53;5059400;28;20278;-66
2022/12/03 05:59:06;;;;;;;5.57;3.03;;;;;;;18.72;55.90;100325.16;5061884;28;20187;-66
2022/12/03 06:01:33;;;;;;;6.33;3.23;;;;;;;18.77;55.92;100321.97;5062440;28;20196;-66
2022/12/03 06:03:58;;;;;;;5.00;3.20;;;;;;;18.78;55.78;100323.63;5070489;28;20550;-66
2022/12/03 06:06:24;;;;;;;4.60;2.57;;;;;;;18.74;55.78;100322.75;5072744;28;20468;-66
2022/12/03 06:08:49;;;;;;;6.93;3.53;;;;;;;18.76;55.67;100326.03;5059147;28;20176;-66
2022/12/03 06:11:14;;;;;;;5.80;4.00;;;;;;;18.77;55.69;100327.69;5060089;28;20608;-66
2022/12/03 06:13:40;;;;;;;4.77;2.87;;;;;;;18.76;56.01;100333.81;5061469;28;20183;-66
2022/12/03 06:16:05;;;;;;;5.43;2.57;;;;;;;18.76;55.75;100339.53;5041804;28;20191;-66
2022/12/03 06:18:31;;;;;;;4.60;2.40;;;;;;;18.74;56.04;100339.91;5059272;28;20168;-66
2022/12/03 06:20:56;;;;;;;6.10;3.30;;;;;;;18.75;55.77;100346.44;5061366;28;20179;-66
2022/12/03 06:23:22;;;;;;;4.47;2.97;;;;;;;18.74;56.03;100334.19;5040608;28;20207;-66
2022/12/03 06:25:47;;;;;;;5.23;3.03;;;;;;;18.77;55.90;100333.41;5041650;28;20191;-66
2022/12/03 06:28:12;;;;;;;4.20;3.03;;;;;;;18.75;56.05;100335.84;5061887;28;20187;-66
2022/12/03 06:30:38;;;;;;;5.37;2.73;;;;;;;18.73;55.95;100329.69;5059874;28;20175;-66
2022/12/03 06:33:03;;;;;;;5.13;2.83;;;;;;;18.80;55.84;100344.09;5063160;28;20179;-66
2022/12/03 06:35:29;;;;;;;4.40;2.60;;;;;;;18.73;55.97;100338.25;5077568;28;20163;-66
2022/12/03 06:37:54;;;;;;;4.90;2.97;;;;;;;18.76;55.65;100331.75;5058784;28;20175;-66
2022/12/03 06:40:20;;;;;;;4.33;2.73;;;;;;;18.78;55.99;100339.97;5061547;28;20155;-66
2022/12/03 06:42:45;;;;;;;5.30;3.10;;;;;;;18.81;55.56;100351.47;5076997;28;20206;-66
2022/12/03 06:45:10;;;;;;;5.43;2.57;;;;;;;18.78;55.93;100355.09;5060715;28;20167;-66
2022/12/03 06:47:36;;;;;;;5.87;3.07;;;;;;;18.78;55.60;100349.38;5059187;28;20194;-66
2022/12/03 06:50:01;;;;;;;5.63;3.20;;;;;;;18.77;55.76;100364.06;5059622;28;20179;-66
2022/12/03 06:52:27;;;;;;;5.07;2.87;;;;;;;18.78;55.88;100363.69;5058459;28;20207;-66
2022/12/03 06:54:52;;;;;;;5.03;2.80;;;;;;;18.78;55.69;100369.41;5058363;28;20188;-66
2022/12/03 06:57:18;;;;;;;6.43;3.00;;;;;;;18.78;56.10;100371.44;5061598;28;20216;-66
2022/12/03 06:59:43;;;;;;;4.80;2.70;;;;;;;18.78;55.79;100380.84;5074261;28;20186;-66
2022/12/03 07:02:10;;;;;;;6.63;3.17;;;;;;;18.81;55.82;100384.97;5077766;28;20192;-66
2022/12/03 07:04:35;;;;;;;5.00;2.70;;;;;;;18.73;56.13;100392.59;5076013;28;20685;-66
2022/12/03 07:07:01;;;;;;;4.67;2.77;;;;;;;18.82;55.75;100389.47;5078213;28;20417;-67
2022/12/03 07:09:26;;;;;;;5.20;2.73;;;;;;;18.77;55.78;100389.78;5061502;28;20191;-66
2022/12/03 07:11:51;;;;;;;4.90;3.10;;;;;;;18.77;55.96;100387.75;5040069;28;20183;-66
2022/12/03 07:14:17;;;;;;;5.80;3.10;;;;;;;18.84;55.61;100396.47;5066318;28;20171;-66
2022/12/03 07:16:42;;;;;;;5.00;2.77;;;;;;;18.81;55.73;100393.56;5078484;28;20167;-66
2022/12/03 07:19:08;;;;;;;3.30;2.20;;;;;;;18.75;56.01;100390.16;5078831;28;20156;-66
2022/12/03 07:21:34;;;;;;;7.30;3.13;;;;;;;18.75;55.76;100395.91;5068983;28;20209;-66
2022/12/03 07:23:59;;;;;;;4.40;2.60;;;;;;;18.77;55.81;100393.47;5056385;28;20176;-66
2022/12/03 07:26:25;;;;;;;4.33;2.73;;;;;;;18.76;56.04;100399.59;5059438;28;20184;-66
2022/12/03 07:28:50;;;;;;;4.60;3.37;;;;;;;18.74;55.82;100397.09;5073301;28;20179;-66
2022/12/03 07:31:16;;;;;;;4.43;2.40;;;;;;;18.75;55.92;100397.91;5077875;28;20622;-66
2022/12/03 07:33:41;;;;;;;4.10;3.07;;;;;;;18.79;55.94;100401.66;5074961;28;20182;-67
2022/12/03 07:36:07;;;;;;;4.77;3.30;;;;;;;18.77;56.06;100402.03;5077702;28;20176;-66
2022/12/03 07:38:33;;;;;;;4.10;2.87;;;;;;;18.75;55.83;100393.03;5073883;28;20575;-66
2022/12/03 07:40:58;;;;;;;4.53;2.83;;;;;;;18.79;55.79;100393.09;5072142;28;20496;-66
2022/12/03 07:43:24;;;;;;;3.77;2.60;;;;;;;18.75;55.94;100395.06;5060882;28;20646;-66
2022/12/03 07:45:49;;;;;;;4.43;3.10;;;;;;;18.77;55.99;100393.47;5055092;28;20179;-66
2022/12/03 07:48:14;;;;;;;4.87;2.43;;;;;;;18.76;56.01;100373.84;5055142;28;20184;-66
2022/12/03 07:50:40;;;;;;;4.10;2.80;;;;;;;18.79;55.75;100368.19;5018618;28;20160;-66
2022/12/03 07:53:05;;;;;;;5.17;2.83;;;;;;;18.78;55.93;100366.53;5054317;28;20172;-66
2022/12/03 07:55:31;;;;;;;5.57;2.67;;;;;;;18.78;55.78;100352.25;5059243;28;20180;-66
2022/12/03 07:57:56;;;;;;;4.17;2.63;;;;;;;18.77;56.09;100358.34;5057545;28;20223;-66
2022/12/03 08:00:21;;;;;;;5.27;3.30;;;;;;;18.76;55.79;100368.94;5056687;28;20160;-66
2022/12/03 08:02:47;;;;;;;3.57;2.47;;;;;;;18.76;55.89;100360.34;5058950;28;20257;-66
2022/12/03 08:05:12;;;;;;;5.23;2.90;;;;;;;18.76;56.06;100366.06;5076546;28;20199;-66
2022/12/03 08:07:38;;;;;;;4.27;2.40;;;;;;;18.81;55.83;100357.19;5074773;28;20162;-66
2022/12/03 08:10:04;;;;;;;4.50;2.67;;;;;;;18.78;56.14;100363.69;5050121;28;20186;-66
2022/12/03 08:12:38;;;;;;;4.87;2.90;;;;;;;18.76;56.05;100354.63;5067547;28;20905;-66
2022/12/03 08:15:23;;;;;;;4.73;3.10;;;;;;;18.77;55.97;100350.56;5057657;28;20426;-66
2022/12/03 08:17:58;;;;;;;3.60;2.67;;;;;;;18.83;55.82;100356.81;5072340;28;20429;-66
2022/12/03 08:20:32;;;;;;;3.77;2.70;;;;;;;18.78;56.09;100362.84;5042604;28;20413;-66
2022/12/03 08:22:58;;;;;;;5.80;2.87;;;;;;;18.81;55.90;100364.97;5027926;28;20541;-66
2022/12/03 08:25:27;;;;;;;4.57;2.93;;;;;;;18.73;55.99;100363.16;5072058;28;20432;-66
2022/12/03 08:28:10;;;;;;;4.33;2.90;;;;;;;18.79;55.89;100362.47;5073876;28;20187;-66
2022/12/03 08:30:35;;;;;;;4.70;3.07;;;;;;;18.76;55.91;100366.06;5059103;28;20434;-66
2022/12/03 08:33:04;;;;;;;4.40;2.60;;;;;;;18.80;55.94;100366.13;5075586;28;20433;-66
2022/12/03 08:35:30;;;;;;;5.90;3.00;;;;;;;18.85;55.96;100360.09;5042168;28;20175;-66
2022/12/03 08:38:04;;;;;;;4.40;2.40;;;;;;;18.80;55.96;100366.13;5059178;28;20402;-66
2022/12/03 08:40:38;;;;;;;4.53;2.60;;;;;;;18.77;56.08;100366.91;5071553;28;20201;-66
2022/12/03 08:43:25;;;;;;;4.77;2.80;;;;;;;18.77;55.86;100362.00;5064291;28;20453;-66
2022/12/03 08:45:51;;;;;;;5.20;2.60;;;;;;;18.77;55.84;100373.44;5073219;28;20950;-66
2022/12/03 08:48:25;;;;;;;4.83;2.60;;;;;;;18.81;55.97;100365.75;5066242;28;20436;-66
2022/12/03 08:50:55;;;;;;;5.07;2.77;;;;;;;18.71;56.01;100360.69;5059262;28;20488;-66
2022/12/03 08:53:32;;;;;;;5.53;2.97;;;;;;;18.74;56.17;100367.66;5060340;28;20973;-66
2022/12/03 08:56:10;;;;;;;4.50;2.50;;;;;;;18.77;55.98;100367.72;5075270;28;20496;-66
2022/12/03 08:58:41;;;;;;;3.77;2.73;;;;;;;18.76;55.95;100363.22;5066228;28;20430;-66
2022/12/03 09:01:09;;;;;;;3.90;2.30;;;;;;;18.77;55.83;100367.72;5026157;28;20437;-66
2022/12/03 09:03:35;;;;;;;4.23;2.50;;;;;;;18.78;55.92;100365.72;5072202;28;20813;-67
2022/12/03 09:06:00;;;;;;;4.47;3.00;;;;;;;18.83;55.83;100368.25;5058261;28;20445;-66
2022/12/03 09:08:25;;;;;;;4.23;2.57;;;;;;;18.82;55.69;100367.41;5071021;28;20191;-66
2022/12/03 09:10:51;;;;;;;4.50;2.30;;;;;;;18.80;55.84;100355.53;5048748;28;20178;-66
2022/12/03 09:13:16;;;;;;;3.43;2.40;;;;;;;18.76;56.04;100360.34;5055342;28;20179;-66
2022/12/03 09:15:42;;;;;;;3.80;2.80;;;;;;;18.80;55.83;100366.97;5069732;28;20186;-66
2022/12/03 09:18:07;;;;;;;3.60;2.40;;;;;;;18.74;56.34;100362.78;5074176;28;20179;-66
2022/12/03 09:20:33;;;;;;;4.07;2.70;;;;;;;18.81;55.96;100357.19;5055542;28;20876;-66
2022/12/03 09:22:58;;;;;;;5.87;2.83;;;;;;;18.81;55.79;100356.38;5062467;28;20198;-66
2022/12/03 09:25:23;;;;;;;3.87;2.47;;;;;;;18.77;55.97;100350.56;5070856;28;20175;-66
2022/12/03 09:27:49;;;;;;;3.53;2.43;;;;;;;18.77;55.83;100362.00;5069929;28;20171;-65
2022/12/03 09:30:15;;;;;;;4.57;2.93;;;;;;;18.77;56.19;100362.00;5062467;28;20187;-66
2022/12/03 09:32:40;;;;;;;5.20;2.87;;;;;;;18.77;56.19;100359.16;5069960;28;20627;-65
2022/12/03 09:35:06;;;;;;;5.63;2.70;;;;;;;18.74;56.00;100371.38;5037981;28;20187;-66
2022/12/03 09:37:32;;;;;;;4.67;2.90;;;;;;;18.78;56.23;100362.84;5061955;28;20257;-66
2022/12/03 09:39:57;;;;;;;4.20;2.53;;;;;;;18.73;56.23;100352.56;5061837;28;20429;-66
2022/12/03 09:42:23;;;;;;;4.93;3.17;;;;;;;18.76;56.09;100339.53;5061027;28;20195;-66
2022/12/03 09:44:49;;;;;;;4.43;2.73;;;;;;;18.75;56.15;100341.56;5043964;28;20202;-66
2022/12/03 09:47:14;;;;;;;4.20;2.60;;;;;;;18.79;56.05;100333.88;5040287;28;20430;-66
2022/12/03 09:49:40;;;;;;;4.20;2.73;;;;;;;18.79;56.00;100331.00;5042226;28;20223;-66
2022/12/03 09:52:05;;;;;;;4.03;2.73;;;;;;;18.74;56.23;100337.03;5058301;28;20882;-66
2022/12/03 09:54:31;;;;;;;4.20;3.00;;;;;;;18.72;56.25;100335.78;5064850;28;20180;-66
2022/12/03 09:56:59;;;;;;;3.43;2.50;;;;;;;18.75;56.02;100335.84;5047216;28;20227;-66
2022/12/03 09:59:26;;;;;;;4.93;2.87;;;;;;;18.80;55.93;100326.09;5039704;28;20187;-66
2022/12/03 10:01:52;;;;;;;4.17;2.70;;;;;;;18.79;55.95;100333.03;5070540;28;20465;-66
2022/12/03 10:04:18;;;;;;;4.50;2.67;;;;;;;18.75;56.04;100326.41;5048049;28;20465;-66
2022/12/03 10:06:43;;;;;;;3.90;2.77;;;;;;;18.80;56.08;100321.22;5043081;28;20540;-66
2022/12/03 10:09:09;;;;;;;4.10;2.97;;;;;;;18.79;56.07;100333.03;5060555;28;21036;-66
2022/12/03 10:11:34;;;;;;;3.67;2.70;;;;;;;18.78;56.06;100329.34;5048402;28;20187;-66
2022/12/03 10:14:00;;;;;;;6.97;2.80;;;;;;;18.80;55.84;100324.06;5065569;28;20172;-66
2022/12/03 10:16:25;;;;;;;5.13;2.90;;;;;;;18.80;55.92;100329.78;5062157;28;20190;-66
2022/12/03 10:18:54;;;;;;;5.40;2.97;;;;;;;18.75;56.22;100321.53;5066665;28;20168;-66
2022/12/03 10:21:35;;;;;;;4.80;2.87;;;;;;;18.79;56.02;100324.44;5028652;28;20186;-66
2022/12/03 10:24:24;;;;;;;4.87;2.77;;;;;;;18.81;55.93;100311.41;5063428;28;20422;-66
2022/12/03 10:26:51;;;;;;;4.40;2.90;;;;;;;18.80;55.84;100311.78;5063105;28;20430;-66
2022/12/03 10:29:31;;;;;;;4.90;2.67;;;;;;;18.79;56.20;100308.13;5044499;28;20509;-66
2022/12/03 10:32:00;;;;;;;6.73;3.00;;;;;;;18.78;56.04;100297.91;5062663;28;20991;-66
2022/12/03 10:34:29;;;;;;;4.40;3.17;;;;;;;18.79;56.02;100299.53;5066202;28;20472;-67
2022/12/03 10:37:17;;;;;;;5.40;2.60;;;;;;;18.83;55.94;100293.88;5070467;28;20422;-66
2022/12/03 10:40:10;;;;;;;4.20;2.63;;;;;;;18.54;52.47;100284.00;5057655;28;20430;-65
2022/12/03 10:42:39;;;;;;;63.40;15.60;;;;;;;18.01;49.07;100284.16;5064529;28;20547;-65
2022/12/03 10:45:06;;;;;;;64.23;15.57;;;;;;;17.60;49.25;100285.75;5044530;28;20430;-65
2022/12/03 10:47:32;;;;;;;42.13;18.00;;;;;;;17.93;49.90;100270.94;5062933;28;20441;-66
2022/12/03 10:50:02;;;;;;;40.50;15.80;;;;;;;18.48;50.56;100267.53;5059343;28;20806;-66
2022/12/03 10:52:28;;;;;;;36.33;14.73;;;;;;;18.69;50.33;100270.75;5048944;28;20579;-66
2022/12/03 10:54:53;;;;;;;42.20;15.30;;;;;;;18.77;50.65;100259.03;5062508;28;20458;-66
2022/12/03 10:57:19;;;;;;;31.07;14.60;;;;;;;18.98;50.75;100259.41;5060882;28;20238;-66
2022/12/03 10:59:44;;;;;;;38.20;14.13;;;;;;;19.12;51.18;100253.88;5065789;28;20175;-67
2022/12/03 11:02:17;;;;;;;37.17;13.07;;;;;;;19.05;51.27;100258.66;5056401;28;20207;-66
2022/12/03 11:04:42;;;;;;;33.20;13.40;;;;;;;19.06;50.74;100260.34;5046932;28;20738;-65
2022/12/03 11:07:15;;;;;;;22.97;11.37;;;;;;;19.10;50.96;100256.31;5064649;28;20460;-66
2022/12/03 11:09:45;;;;;;;25.03;11.60;;;;;;;19.16;51.11;100260.47;5065829;28;20205;-65
2022/12/03 11:12:24;;;;;;;23.97;12.27;;;;;;;19.05;51.57;100248.06;5041597;28;20451;-66
2022/12/03 11:14:49;;;;;;;26.33;11.10;;;;;;;19.08;51.76;100238.72;5038419;28;21179;-65
2022/12/03 11:17:24;;;;;;;25.30;10.37;;;;;;;19.14;50.86;100239.19;5057522;28;20430;-65
2022/12/03 11:19:49;;;;;;;20.47;10.80;;;;;;;19.08;50.69;100238.72;5056398;28;21090;-64
2022/12/03 11:22:16;;;;;;;25.20;10.30;;;;;;;19.05;50.38;100238.63;5056438;28;20445;-65
2022/12/03 11:24:41;;;;;;;24.43;10.53;;;;;;;19.03;49.87;100239.06;5059206;28;20171;-64
2022/12/03 11:27:15;;;;;;;25.90;11.83;;;;;;;19.10;50.37;100238.31;5057246;28;21480;-64
2022/12/03 11:29:58;;;;;;;23.07;11.93;;;;;;;19.31;51.38;100238.66;5063403;28;20171;-65
2022/12/03 11:32:42;;;;;;;27.10;12.03;;;;;;;19.64;51.13;100230.09;5038420;28;20430;-65
2022/12/03 11:35:15;;;;;;;21.80;11.90;;;;;;;19.42;51.41;100222.47;5066400;28;20940;-64
2022/12/03 11:37:40;;;;;;;19.43;11.33;;;;;;;19.31;52.63;100221.50;5063785;28;21236;-64
2022/12/03 11:40:15;;;;;;;25.20;11.87;;;;;;;19.34;53.56;100218.69;5062355;28;20509;-65
2022/12/03 11:42:40;;;;;;;16.00;10.97;;;;;;;19.34;53.49;100204.34;5060352;28;20199;-65
2022/12/03 11:45:07;;;;;;;16.07;9.30;;;;;;;19.35;54.18;100202.31;5042002;28;20457;-65
2022/12/03 11:47:35;;;;;;;20.93;9.80;;;;;;;19.31;53.73;100195.72;5054772;28;20183;-65